PWSweather.com
Personal Weather Stations
Station Observations
KMAWOBUR2
West Side, Woburn, MA 01801

West SideWoburn, MA 01801

Lat: 42.458, Lon: -71.1955

Elevation: 160

Station Type: DAVIS/Vantage Pro2

http://pauland.net

Latest ConditionsUpdated 7:50:00 AM GMT Thursday, Dec 12, 2019
Currently Today's Max Today's Min Today's Average
Temperature 23.8°F-4.6°C 25.5°F-3.6°C 22.1°F-5.5°C 23.3°F-4.8°C
Dew Point 17.4°F-8.1°C 21.3°F-5.9°C 17.3°F-8.2°C 19.9°F-6.7°C
Winds 1.0 mph W1.6 kmh W 5.0 mph -8.0 kmh - - 1.4 mph 2.3 kmh
Wind Gusts 2.0 mph3.2 kmh 14.0 mph22.5 kmh - -
Humidity 76% 92% 75% 87%
Pressure 30.47 in1031.8 mb 30.47 in1031.8 mb 30.26 in1024.7 mb -
Hour Temp Dew Point Humidity Winds Wind Gusts Pressure Precip Precip Rate Daily Precip Total
07:50 AM 23.8°F-4.6°C 17.4°F-8.1°C 76% 1.0 mph W1.6 kmh W 2.0 mph3.2 kmh 30.47 in1031.8 mb 0.00 in0.0 mm 0.00 in0.0 mm 0.00 in0.0 mm
07:45 AM 24.0°F-4.4°C 17.6°F-8.0°C 76% 1.0 mph WSW1.6 kmh WSW 2.0 mph3.2 kmh 30.47 in1031.8 mb 0.00 in0.0 mm 0.00 in0.0 mm 0.00 in0.0 mm
07:40 AM 24.1°F-4.4°C 17.3°F-8.2°C 75% 1.0 mph WSW1.6 kmh WSW 3.0 mph4.8 kmh 30.46 in1031.5 mb 0.00 in0.0 mm 0.00 in0.0 mm 0.00 in0.0 mm
07:35 AM 24.3°F-4.3°C 17.5°F-8.1°C 75% 2.0 mph NNW3.2 kmh NNW 4.0 mph6.4 kmh 30.46 in1031.5 mb 0.00 in0.0 mm 0.00 in0.0 mm 0.00 in0.0 mm
07:30 AM 24.5°F-4.2°C 17.7°F-7.9°C 75% 2.0 mph WNW3.2 kmh WNW 9.0 mph14.5 kmh 30.46 in1031.5 mb 0.00 in0.0 mm 0.00 in0.0 mm 0.00 in0.0 mm
07:25 AM 24.6°F-4.1°C 17.8°F-7.9°C 75% 2.0 mph NNW3.2 kmh NNW 5.0 mph8.0 kmh 30.46 in1031.5 mb 0.00 in0.0 mm 0.00 in0.0 mm 0.00 in0.0 mm
07:20 AM 24.8°F-4.0°C 18.0°F-7.8°C 75% 1.0 mph W1.6 kmh W 4.0 mph6.4 kmh 30.45 in1031.2 mb 0.00 in0.0 mm 0.00 in0.0 mm 0.00 in0.0 mm
07:15 AM 24.9°F-3.9°C 18.4°F-7.6°C 76% 2.0 mph NW3.2 kmh NW 7.0 mph11.3 kmh 30.46 in1031.5 mb 0.00 in0.0 mm 0.00 in0.0 mm 0.00 in0.0 mm
07:10 AM 25.0°F-3.9°C 18.2°F-7.7°C 75% 3.0 mph NNW4.8 kmh NNW 12.0 mph19.3 kmh 30.44 in1030.8 mb 0.00 in0.0 mm 0.00 in0.0 mm 0.00 in0.0 mm
07:05 AM 25.1°F-3.8°C 18.6°F-7.4°C 76% 3.0 mph NW4.8 kmh NW 10.0 mph16.1 kmh 30.45 in1031.2 mb 0.00 in0.0 mm 0.00 in0.0 mm 0.00 in0.0 mm
07:00 AM 25.1°F-3.8°C 18.3°F-7.6°C 75% 4.0 mph NW6.4 kmh NW 10.0 mph16.1 kmh 30.44 in1030.8 mb 0.00 in0.0 mm 0.00 in0.0 mm 0.00 in0.0 mm
06:55 AM 25.2°F-3.8°C 18.4°F-7.6°C 75% 3.0 mph NW4.8 kmh NW 11.0 mph17.7 kmh 30.44 in1030.8 mb 0.00 in0.0 mm 0.00 in0.0 mm 0.00 in0.0 mm
06:50 AM 25.4°F-3.7°C 18.6°F-7.4°C 75% 4.0 mph NW6.4 kmh NW 11.0 mph17.7 kmh 30.44 in1030.8 mb 0.00 in0.0 mm 0.00 in0.0 mm 0.00 in0.0 mm
06:45 AM 25.4°F-3.7°C 18.6°F-7.4°C 75% 3.0 mph WNW4.8 kmh WNW 7.0 mph11.3 kmh 30.43 in1030.5 mb 0.00 in0.0 mm 0.00 in0.0 mm 0.00 in0.0 mm
06:40 AM 25.4°F-3.7°C 18.6°F-7.4°C 75% 5.0 mph NW8.0 kmh NW 13.0 mph20.9 kmh 30.43 in1030.5 mb 0.00 in0.0 mm 0.00 in0.0 mm 0.00 in0.0 mm
06:35 AM 25.5°F-3.6°C 18.7°F-7.4°C 75% 3.0 mph NNW4.8 kmh NNW 11.0 mph17.7 kmh 30.42 in1030.1 mb 0.00 in0.0 mm 0.00 in0.0 mm 0.00 in0.0 mm
06:30 AM 25.5°F-3.6°C 18.7°F-7.4°C 75% 4.0 mph NW6.4 kmh NW 12.0 mph19.3 kmh 30.41 in1029.8 mb 0.00 in0.0 mm 0.00 in0.0 mm 0.00 in0.0 mm
06:25 AM 25.4°F-3.7°C 19.2°F-7.1°C 77% 5.0 mph NW8.0 kmh NW 13.0 mph20.9 kmh 30.41 in1029.8 mb 0.00 in0.0 mm 0.00 in0.0 mm 0.00 in0.0 mm
06:20 AM 25.5°F-3.6°C 19.0°F-7.2°C 76% 5.0 mph NW8.0 kmh NW 14.0 mph22.5 kmh 30.40 in1029.5 mb 0.00 in0.0 mm 0.00 in0.0 mm 0.00 in0.0 mm
06:15 AM 25.5°F-3.6°C 19.3°F-7.1°C 77% 4.0 mph NW6.4 kmh NW 14.0 mph22.5 kmh 30.40 in1029.5 mb 0.00 in0.0 mm 0.00 in0.0 mm 0.00 in0.0 mm
06:10 AM 25.4°F-3.7°C 19.2°F-7.1°C 77% 3.0 mph NNW4.8 kmh NNW 12.0 mph19.3 kmh 30.39 in1029.1 mb 0.00 in0.0 mm 0.00 in0.0 mm 0.00 in0.0 mm
06:05 AM 25.3°F-3.7°C 19.4°F-7.0°C 78% 4.0 mph WNW6.4 kmh WNW 12.0 mph19.3 kmh 30.39 in1029.1 mb 0.00 in0.0 mm 0.00 in0.0 mm 0.00 in0.0 mm
06:00 AM 25.2°F-3.8°C 19.6°F-6.9°C 79% 3.0 mph NW4.8 kmh NW 9.0 mph14.5 kmh 30.39 in1029.1 mb 0.00 in0.0 mm 0.00 in0.0 mm 0.00 in0.0 mm
05:55 AM 25.2°F-3.8°C 19.9°F-6.7°C 80% 2.0 mph E3.2 kmh E 4.0 mph6.4 kmh 30.38 in1028.8 mb 0.00 in0.0 mm 0.00 in0.0 mm 0.00 in0.0 mm
05:50 AM 25.1°F-3.8°C 19.8°F-6.8°C 80% 3.0 mph NW4.8 kmh NW 8.0 mph12.9 kmh 30.37 in1028.4 mb 0.00 in0.0 mm 0.00 in0.0 mm 0.00 in0.0 mm
05:45 AM 24.9°F-3.9°C 19.9°F-6.7°C 81% 4.0 mph NNW6.4 kmh NNW 11.0 mph17.7 kmh 30.37 in1028.4 mb 0.00 in0.0 mm 0.00 in0.0 mm 0.00 in0.0 mm
05:40 AM 24.7°F-4.1°C 20.3°F-6.5°C 83% 3.0 mph NNW4.8 kmh NNW 10.0 mph16.1 kmh 30.36 in1028.1 mb 0.00 in0.0 mm 0.00 in0.0 mm 0.00 in0.0 mm
05:35 AM 24.5°F-4.2°C 20.6°F-6.3°C 85% 2.0 mph NNE3.2 kmh NNE 5.0 mph8.0 kmh 30.36 in1028.1 mb 0.00 in0.0 mm 0.00 in0.0 mm 0.00 in0.0 mm
05:30 AM 24.2°F-4.3°C 20.6°F-6.3°C 86% 4.0 mph W6.4 kmh W 9.0 mph14.5 kmh 30.36 in1028.1 mb 0.00 in0.0 mm 0.00 in0.0 mm 0.00 in0.0 mm
05:25 AM 23.8°F-4.6°C 20.5°F-6.4°C 87% 3.0 mph WSW4.8 kmh WSW 8.0 mph12.9 kmh 30.35 in1027.8 mb 0.00 in0.0 mm 0.00 in0.0 mm 0.00 in0.0 mm
05:20 AM 23.3°F-4.8°C 20.5°F-6.4°C 89% 3.0 mph SSW4.8 kmh SSW 9.0 mph14.5 kmh 30.36 in1028.1 mb 0.00 in0.0 mm 0.00 in0.0 mm 0.00 in0.0 mm
05:15 AM 23.0°F-5.0°C 20.5°F-6.4°C 90% 3.0 mph W4.8 kmh W 11.0 mph17.7 kmh 30.36 in1028.1 mb 0.00 in0.0 mm 0.00 in0.0 mm 0.00 in0.0 mm
05:10 AM 22.8°F-5.1°C 20.3°F-6.5°C 90% 1.0 mph SSE1.6 kmh SSE 9.0 mph14.5 kmh 30.36 in1028.1 mb 0.00 in0.0 mm 0.00 in0.0 mm 0.00 in0.0 mm
05:05 AM 22.7°F-5.2°C 20.2°F-6.6°C 90% 1.0 mph WSW1.6 kmh WSW 4.0 mph6.4 kmh 30.35 in1027.8 mb 0.00 in0.0 mm 0.00 in0.0 mm 0.00 in0.0 mm
05:00 AM 22.7°F-5.2°C 20.5°F-6.4°C 91% 1.0 mph SE1.6 kmh SE 3.0 mph4.8 kmh 30.35 in1027.8 mb 0.00 in0.0 mm 0.00 in0.0 mm 0.05 in1.3 mm
04:55 AM 22.8°F-5.1°C 20.6°F-6.3°C 91% Calm Calm 2.0 mph3.2 kmh 30.35 in1027.8 mb 0.00 in0.0 mm 0.00 in0.0 mm 0.05 in1.3 mm
04:50 AM 22.8°F-5.1°C 20.6°F-6.3°C 91% 1.0 mph NNW1.6 kmh NNW 2.0 mph3.2 kmh 30.34 in1027.4 mb 0.00 in0.0 mm 0.00 in0.0 mm 0.05 in1.3 mm
04:45 AM 22.9°F-5.1°C 20.7°F-6.3°C 91% Calm Calm 1.0 mph1.6 kmh 30.34 in1027.4 mb 0.00 in0.0 mm 0.00 in0.0 mm 0.05 in1.3 mm
04:40 AM 22.8°F-5.1°C 20.8°F-6.2°C 92% Calm Calm 2.0 mph3.2 kmh 30.33 in1027.1 mb 0.00 in0.0 mm 0.00 in0.0 mm 0.05 in1.3 mm
04:35 AM 22.8°F-5.1°C 20.8°F-6.2°C 92% 1.0 mph SW1.6 kmh SW 3.0 mph4.8 kmh 30.33 in1027.1 mb 0.00 in0.0 mm 0.00 in0.0 mm 0.05 in1.3 mm
04:30 AM 22.7°F-5.2°C 20.7°F-6.3°C 92% Calm Calm 1.0 mph1.6 kmh 30.33 in1027.1 mb 0.00 in0.0 mm 0.00 in0.0 mm 0.05 in1.3 mm
04:25 AM 22.6°F-5.2°C 20.6°F-6.3°C 92% 1.0 mph WNW1.6 kmh WNW 6.0 mph9.7 kmh 30.33 in1027.1 mb 0.00 in0.0 mm 0.00 in0.0 mm 0.05 in1.3 mm
04:20 AM 22.4°F-5.3°C 20.4°F-6.4°C 92% 1.0 mph 1.6 kmh 5.0 mph8.0 kmh 30.33 in1027.1 mb 0.00 in0.0 mm 0.00 in0.0 mm 0.05 in1.3 mm
04:15 AM 22.2°F-5.4°C 20.2°F-6.6°C 92% 2.0 mph NW3.2 kmh NW 7.0 mph11.3 kmh 30.33 in1027.1 mb 0.00 in0.0 mm 0.00 in0.0 mm 0.05 in1.3 mm
04:10 AM 22.2°F-5.4°C 20.2°F-6.6°C 92% 1.0 mph W1.6 kmh W 2.0 mph3.2 kmh 30.32 in1026.8 mb 0.00 in0.0 mm 0.00 in0.0 mm 0.05 in1.3 mm
04:05 AM 22.1°F-5.5°C 20.1°F-6.6°C 92% 1.0 mph WNW1.6 kmh WNW 3.0 mph4.8 kmh 30.32 in1026.8 mb 0.00 in0.0 mm 0.00 in0.0 mm 0.05 in1.3 mm
04:00 AM 22.1°F-5.5°C 20.1°F-6.6°C 92% 1.0 mph SSW1.6 kmh SSW 3.0 mph4.8 kmh 30.32 in1026.8 mb 0.00 in0.0 mm 0.00 in0.0 mm 0.05 in1.3 mm
03:55 AM 22.2°F-5.4°C 20.2°F-6.6°C 92% 1.0 mph SW1.6 kmh SW 2.0 mph3.2 kmh 30.32 in1026.8 mb 0.00 in0.0 mm 0.00 in0.0 mm 0.05 in1.3 mm
03:50 AM 22.3°F-5.4°C 20.3°F-6.5°C 92% Calm Calm 2.0 mph3.2 kmh 30.32 in1026.8 mb 0.00 in0.0 mm 0.00 in0.0 mm 0.05 in1.3 mm
03:45 AM 22.3°F-5.4°C 20.3°F-6.5°C 92% 1.0 mph SSW1.6 kmh SSW 3.0 mph4.8 kmh 30.32 in1026.8 mb 0.00 in0.0 mm 0.00 in0.0 mm 0.05 in1.3 mm
03:40 AM 22.3°F-5.4°C 20.3°F-6.5°C 92% 1.0 mph SSW1.6 kmh SSW 2.0 mph3.2 kmh 30.31 in1026.4 mb 0.00 in0.0 mm 0.00 in0.0 mm 0.05 in1.3 mm
03:35 AM 22.3°F-5.4°C 20.3°F-6.5°C 92% Calm Calm 2.0 mph3.2 kmh 30.31 in1026.4 mb 0.00 in0.0 mm 0.00 in0.0 mm 0.05 in1.3 mm
03:30 AM 22.3°F-5.4°C 20.3°F-6.5°C 92% Calm Calm 3.0 mph4.8 kmh 30.30 in1026.1 mb 0.00 in0.0 mm 0.00 in0.0 mm 0.05 in1.3 mm
03:25 AM 22.3°F-5.4°C 20.3°F-6.5°C 92% 1.0 mph SSW1.6 kmh SSW 3.0 mph4.8 kmh 30.30 in1026.1 mb 0.00 in0.0 mm 0.00 in0.0 mm 0.05 in1.3 mm
03:20 AM 22.3°F-5.4°C 20.3°F-6.5°C 92% 1.0 mph NW1.6 kmh NW 2.0 mph3.2 kmh 30.30 in1026.1 mb 0.00 in0.0 mm 0.00 in0.0 mm 0.05 in1.3 mm
03:15 AM 22.2°F-5.4°C 20.2°F-6.6°C 92% Calm Calm 2.0 mph3.2 kmh 30.30 in1026.1 mb 0.00 in0.0 mm 0.00 in0.0 mm 0.05 in1.3 mm
03:10 AM 22.2°F-5.4°C 20.2°F-6.6°C 92% 1.0 mph WSW1.6 kmh WSW 5.0 mph8.0 kmh 30.30 in1026.1 mb 0.00 in0.0 mm 0.00 in0.0 mm 0.05 in1.3 mm
03:05 AM 22.2°F-5.4°C 20.2°F-6.6°C 92% 1.0 mph SW1.6 kmh SW 3.0 mph4.8 kmh 30.30 in1026.1 mb 0.00 in0.0 mm 0.00 in0.0 mm 0.05 in1.3 mm
03:00 AM 22.2°F-5.4°C 20.2°F-6.6°C 92% 1.0 mph SW1.6 kmh SW 4.0 mph6.4 kmh 30.30 in1026.1 mb 0.00 in0.0 mm 0.00 in0.0 mm 0.05 in1.3 mm
02:55 AM 22.2°F-5.4°C 20.2°F-6.6°C 92% Calm Calm 3.0 mph4.8 kmh 30.30 in1026.1 mb 0.00 in0.0 mm 0.00 in0.0 mm 0.05 in1.3 mm
02:50 AM 22.2°F-5.4°C 20.2°F-6.6°C 92% 1.0 mph SW1.6 kmh SW 5.0 mph8.0 kmh 30.29 in1025.7 mb 0.00 in0.0 mm 0.00 in0.0 mm 0.05 in1.3 mm
02:45 AM 22.2°F-5.4°C 20.2°F-6.6°C 92% 1.0 mph SSW1.6 kmh SSW 2.0 mph3.2 kmh 30.29 in1025.7 mb 0.00 in0.0 mm 0.00 in0.0 mm 0.05 in1.3 mm
02:40 AM 22.2°F-5.4°C 20.2°F-6.6°C 92% 2.0 mph SSW3.2 kmh SSW 4.0 mph6.4 kmh 30.29 in1025.7 mb 0.00 in0.0 mm 0.00 in0.0 mm 0.05 in1.3 mm
02:35 AM 22.2°F-5.4°C 20.2°F-6.6°C 92% 1.0 mph SSW1.6 kmh SSW 3.0 mph4.8 kmh 30.29 in1025.7 mb 0.00 in0.0 mm 0.00 in0.0 mm 0.05 in1.3 mm
02:30 AM 22.2°F-5.4°C 20.2°F-6.6°C 92% 1.0 mph S1.6 kmh S 3.0 mph4.8 kmh 30.29 in1025.7 mb 0.00 in0.0 mm 0.00 in0.0 mm 0.05 in1.3 mm
02:25 AM 22.2°F-5.4°C 20.2°F-6.6°C 92% 1.0 mph SSW1.6 kmh SSW 4.0 mph6.4 kmh 30.29 in1025.7 mb 0.00 in0.0 mm 0.00 in0.0 mm 0.05 in1.3 mm
02:20 AM 22.2°F-5.4°C 20.2°F-6.6°C 92% 1.0 mph SW1.6 kmh SW 3.0 mph4.8 kmh 30.29 in1025.7 mb 0.00 in0.0 mm 0.00 in0.0 mm 0.05 in1.3 mm
02:15 AM 22.2°F-5.4°C 20.0°F-6.7°C 91% Calm Calm 2.0 mph3.2 kmh 30.29 in1025.7 mb 0.00 in0.0 mm 0.00 in0.0 mm 0.05 in1.3 mm
02:10 AM 22.3°F-5.4°C 20.1°F-6.6°C 91% 1.0 mph SW1.6 kmh SW 2.0 mph3.2 kmh 30.28 in1025.4 mb 0.00 in0.0 mm 0.00 in0.0 mm 0.05 in1.3 mm
02:05 AM 22.3°F-5.4°C 20.3°F-6.5°C 92% Calm Calm 2.0 mph3.2 kmh 30.28 in1025.4 mb 0.00 in0.0 mm 0.00 in0.0 mm 0.05 in1.3 mm
02:00 AM 22.4°F-5.3°C 20.4°F-6.4°C 92% 1.0 mph SSW1.6 kmh SSW 2.0 mph3.2 kmh 30.28 in1025.4 mb 0.00 in0.0 mm 0.00 in0.0 mm 0.05 in1.3 mm
01:55 AM 22.4°F-5.3°C 20.4°F-6.4°C 92% Calm Calm 2.0 mph3.2 kmh 30.28 in1025.4 mb 0.00 in0.0 mm 0.00 in0.0 mm 0.05 in1.3 mm
01:50 AM 22.4°F-5.3°C 20.4°F-6.4°C 92% 1.0 mph SW1.6 kmh SW 2.0 mph3.2 kmh 30.28 in1025.4 mb 0.00 in0.0 mm 0.00 in0.0 mm 0.05 in1.3 mm
01:45 AM 22.4°F-5.3°C 20.4°F-6.4°C 92% Calm Calm 2.0 mph3.2 kmh 30.27 in1025.1 mb 0.00 in0.0 mm 0.00 in0.0 mm 0.05 in1.3 mm
01:40 AM 22.4°F-5.3°C 20.2°F-6.6°C 91% Calm Calm 2.0 mph3.2 kmh 30.28 in1025.4 mb 0.00 in0.0 mm 0.00 in0.0 mm 0.05 in1.3 mm
01:35 AM 22.4°F-5.3°C 20.2°F-6.6°C 91% 1.0 mph SW1.6 kmh SW 2.0 mph3.2 kmh 30.28 in1025.4 mb 0.00 in0.0 mm 0.00 in0.0 mm 0.05 in1.3 mm
01:30 AM 22.3°F-5.4°C 20.1°F-6.6°C 91% 2.0 mph SW3.2 kmh SW 5.0 mph8.0 kmh 30.28 in1025.4 mb 0.00 in0.0 mm 0.00 in0.0 mm 0.05 in1.3 mm
01:25 AM 22.4°F-5.3°C 20.2°F-6.6°C 91% 2.0 mph SSW3.2 kmh SSW 5.0 mph8.0 kmh 30.28 in1025.4 mb 0.00 in0.0 mm 0.00 in0.0 mm 0.05 in1.3 mm
01:20 AM 22.4°F-5.3°C 19.9°F-6.7°C 90% 1.0 mph SSW1.6 kmh SSW 3.0 mph4.8 kmh 30.27 in1025.1 mb 0.00 in0.0 mm 0.00 in0.0 mm 0.05 in1.3 mm
01:15 AM 22.5°F-5.3°C 20.0°F-6.7°C 90% 1.0 mph SW1.6 kmh SW 2.0 mph3.2 kmh 30.27 in1025.1 mb 0.00 in0.0 mm 0.00 in0.0 mm 0.05 in1.3 mm
01:10 AM 22.6°F-5.2°C 20.1°F-6.6°C 90% 1.0 mph SW1.6 kmh SW 2.0 mph3.2 kmh 30.27 in1025.1 mb 0.00 in0.0 mm 0.00 in0.0 mm 0.05 in1.3 mm
01:05 AM 22.7°F-5.2°C 20.2°F-6.6°C 90% Calm Calm 2.0 mph3.2 kmh 30.27 in1025.1 mb 0.00 in0.0 mm 0.00 in0.0 mm 0.05 in1.3 mm
01:00 AM 22.9°F-5.1°C 20.4°F-6.4°C 90% Calm Calm 2.0 mph3.2 kmh 30.27 in1025.1 mb 0.00 in0.0 mm 0.00 in0.0 mm 0.05 in1.3 mm
12:55 AM 23.0°F-5.0°C 20.5°F-6.4°C 90% Calm Calm 1.0 mph1.6 kmh 30.27 in1025.1 mb 0.00 in0.0 mm 0.00 in0.0 mm 0.05 in1.3 mm
12:50 AM 23.1°F-4.9°C 20.6°F-6.3°C 90% Calm Calm 1.0 mph1.6 kmh 30.27 in1025.1 mb 0.00 in0.0 mm 0.00 in0.0 mm 0.05 in1.3 mm
12:45 AM 23.2°F-4.9°C 21.0°F-6.1°C 91% Calm Calm 1.0 mph1.6 kmh 30.27 in1025.1 mb 0.00 in0.0 mm 0.00 in0.0 mm 0.05 in1.3 mm
12:40 AM 23.3°F-4.8°C 21.1°F-6.1°C 91% Calm Calm 1.0 mph1.6 kmh 30.27 in1025.1 mb 0.00 in0.0 mm 0.00 in0.0 mm 0.05 in1.3 mm
12:35 AM 23.4°F-4.8°C 21.2°F-6.0°C 91% Calm Calm 1.0 mph1.6 kmh 30.27 in1025.1 mb 0.00 in0.0 mm 0.00 in0.0 mm 0.05 in1.3 mm
12:30 AM 23.4°F-4.8°C 21.2°F-6.0°C 91% Calm Calm 2.0 mph3.2 kmh 30.26 in1024.7 mb 0.00 in0.0 mm 0.00 in0.0 mm 0.05 in1.3 mm
12:25 AM 23.5°F-4.7°C 21.3°F-5.9°C 91% Calm Calm 1.0 mph1.6 kmh 30.27 in1025.1 mb 0.00 in0.0 mm 0.00 in0.0 mm 0.05 in1.3 mm
12:20 AM 23.5°F-4.7°C 21.3°F-5.9°C 91% Calm Calm 1.0 mph1.6 kmh 30.27 in1025.1 mb 0.00 in0.0 mm 0.00 in0.0 mm 0.05 in1.3 mm
12:15 AM 23.5°F-4.7°C 21.3°F-5.9°C 91% Calm Calm 2.0 mph3.2 kmh 30.27 in1025.1 mb 0.00 in0.0 mm 0.00 in0.0 mm 0.05 in1.3 mm
12:10 AM 23.4°F-4.8°C 21.2°F-6.0°C 91% 1.0 mph SW1.6 kmh SW 3.0 mph4.8 kmh 30.27 in1025.1 mb 0.00 in0.0 mm 0.00 in0.0 mm 0.05 in1.3 mm
12:05 AM 23.5°F-4.7°C 21.3°F-5.9°C 91% 1.0 mph S1.6 kmh S 2.0 mph3.2 kmh 30.26 in1024.7 mb 0.00 in0.0 mm 0.00 in0.0 mm 0.05 in1.3 mm
12:00 AM 23.4°F-4.8°C 21.2°F-6.0°C 91% 1.0 mph SW1.6 kmh SW 2.0 mph3.2 kmh 30.27 in1025.1 mb 0.00 in0.0 mm 0.00 in0.0 mm 0.05 in1.3 mm